createdAt,value
2022-11-07T00:01:22.044Z,67.30
2022-11-07T00:03:49.108Z,67.30
2022-11-07T00:06:16.025Z,67.30
2022-11-07T00:08:42.630Z,67.30
2022-11-07T00:11:09.246Z,67.40
2022-11-07T00:13:35.853Z,67.30
2022-11-07T00:16:08.658Z,67.30
2022-11-07T00:18:35.889Z,67.30
2022-11-07T00:21:07.309Z,67.30
2022-11-07T00:23:34.506Z,67.30
2022-11-07T00:26:07.048Z,67.30
2022-11-07T00:28:34.792Z,67.30
2022-11-07T00:31:01.395Z,67.30
2022-11-07T00:33:32.117Z,67.30
2022-11-07T00:35:58.717Z,66.60
2022-11-07T00:38:25.287Z,67.20
2022-11-07T00:40:56.152Z,67.20
2022-11-07T00:43:25.633Z,67.20
2022-11-07T00:45:52.554Z,66.60
2022-11-07T00:48:19.540Z,67.20
2022-11-07T00:50:46.364Z,67.20
2022-11-07T00:53:13.369Z,67.20
2022-11-07T00:55:40.320Z,67.10
2022-11-07T00:58:11.192Z,67.20
2022-11-07T01:00:40.381Z,67.10
2022-11-07T01:03:25.543Z,67.20
2022-11-07T01:05:59.852Z,67.20
2022-11-07T01:08:27.246Z,67.00
2022-11-07T01:10:54.534Z,66.90
2022-11-07T01:13:21.907Z,67.00
2022-11-07T01:15:48.560Z,67.00
2022-11-07T01:18:15.470Z,67.00
2022-11-07T01:20:42.164Z,66.90
2022-11-07T01:23:09.677Z,66.40
2022-11-07T01:25:37.913Z,66.90
2022-11-07T01:28:06.238Z,66.90
2022-11-07T01:30:33.433Z,66.90
2022-11-07T01:33:00.055Z,66.90
2022-11-07T01:35:26.691Z,66.90
2022-11-07T01:37:53.273Z,66.90
2022-11-07T01:40:19.966Z,66.90
2022-11-07T01:42:46.715Z,66.90
2022-11-07T01:45:26.095Z,67.00
2022-11-07T01:47:54.826Z,66.90
2022-11-07T01:50:24.652Z,66.90
2022-11-07T01:52:55.118Z,66.90
2022-11-07T01:55:27.064Z,66.90
2022-11-07T01:58:01.296Z,66.90
2022-11-07T02:00:28.902Z,66.70
2022-11-07T02:03:04.632Z,66.90
2022-11-07T02:05:37.681Z,67.00
2022-11-07T02:08:08.055Z,67.00
2022-11-07T02:10:36.416Z,67.80
2022-11-07T02:13:03.504Z,67.00
2022-11-07T02:15:30.427Z,67.00
2022-11-07T02:17:58.437Z,67.00
2022-11-07T02:20:25.027Z,67.10
2022-11-07T02:22:56.501Z,67.10
2022-11-07T02:25:23.716Z,67.00
2022-11-07T02:27:55.432Z,67.10
2022-11-07T02:30:25.911Z,66.00
2022-11-07T02:32:53.921Z,67.00
2022-11-07T02:35:43.888Z,67.00
2022-11-07T02:38:16.478Z,67.00
2022-11-07T02:40:51.144Z,67.00
2022-11-07T02:43:20.776Z,67.00
2022-11-07T02:45:48.941Z,67.00
2022-11-07T02:48:15.842Z,67.00
2022-11-07T02:50:42.649Z,67.00
2022-11-07T02:53:09.509Z,67.00
2022-11-07T02:55:36.193Z,67.00
2022-11-07T02:58:02.975Z,67.00
2022-11-07T03:00:29.646Z,67.00
2022-11-07T03:02:56.446Z,67.00
2022-11-07T03:05:23.210Z,67.10
2022-11-07T03:07:50.316Z,67.10
2022-11-07T03:10:17.935Z,67.10
2022-11-07T03:12:44.667Z,67.10
2022-11-07T03:15:12.557Z,66.50
2022-11-07T03:17:39.731Z,67.10
2022-11-07T03:20:07.089Z,67.10
2022-11-07T03:22:33.789Z,67.10
2022-11-07T03:25:00.358Z,66.50
2022-11-07T03:27:26.989Z,67.10
2022-11-07T03:29:53.610Z,67.00
2022-11-07T03:32:20.207Z,67.00
2022-11-07T03:34:46.805Z,67.10
2022-11-07T03:37:13.495Z,67.00
2022-11-07T03:39:40.129Z,67.00
2022-11-07T03:42:06.768Z,67.00
2022-11-07T03:44:33.338Z,67.00
2022-11-07T03:46:59.940Z,67.00
2022-11-07T03:49:27.110Z,67.00
2022-11-07T03:51:53.734Z,67.00
2022-11-07T03:54:20.340Z,67.00
2022-11-07T03:56:47.044Z,67.00
2022-11-07T03:59:13.625Z,67.10
2022-11-07T04:01:40.247Z,67.00
2022-11-07T04:04:06.908Z,67.10
2022-11-07T04:06:33.476Z,67.10
2022-11-07T04:09:00.082Z,67.00
2022-11-07T04:11:45.171Z,67.10
2022-11-07T04:14:33.049Z,67.10
2022-11-07T04:17:18.369Z,67.10
2022-11-07T04:19:49.109Z,67.10
2022-11-07T04:22:16.703Z,67.10
2022-11-07T04:24:46.018Z,67.00
2022-11-07T04:27:33.476Z,67.00
2022-11-07T04:30:18.689Z,67.10
2022-11-07T04:32:49.195Z,67.00
2022-11-07T04:35:16.829Z,67.00
2022-11-07T04:37:43.852Z,67.00
2022-11-07T04:40:11.844Z,67.00
2022-11-07T04:42:38.964Z,67.00
2022-11-07T04:45:06.819Z,67.00
2022-11-07T04:47:35.318Z,67.00
2022-11-07T04:50:08.294Z,67.00
2022-11-07T04:52:34.967Z,66.90
2022-11-07T04:55:01.747Z,66.30
2022-11-07T04:57:28.528Z,66.90
2022-11-07T04:59:55.188Z,66.90
2022-11-07T05:02:25.092Z,66.90
2022-11-07T05:04:52.802Z,66.80
2022-11-07T05:07:20.402Z,66.70
2022-11-07T05:09:47.055Z,66.80
2022-11-07T05:12:13.967Z,66.80
2022-11-07T05:14:40.555Z,66.70
2022-11-07T05:17:07.343Z,66.40
2022-11-07T05:19:33.992Z,66.50
2022-11-07T05:22:19.262Z,66.50
2022-11-07T05:24:45.831Z,66.20
2022-11-07T05:27:19.756Z,66.30
2022-11-07T05:29:46.883Z,66.50
2022-11-07T05:32:14.259Z,66.80
2022-11-07T05:34:40.928Z,66.60
2022-11-07T05:37:08.750Z,66.60
2022-11-07T05:39:35.840Z,66.60
2022-11-07T05:42:03.075Z,66.30
2022-11-07T05:44:32.609Z,66.40
2022-11-07T05:46:59.969Z,66.80
2022-11-07T05:49:26.669Z,66.90
2022-11-07T05:51:53.564Z,66.50
2022-11-07T05:54:20.257Z,66.50
2022-11-07T05:56:46.877Z,66.40
2022-11-07T05:59:13.778Z,66.90
2022-11-07T06:01:40.563Z,66.70
2022-11-07T06:04:08.039Z,66.80
2022-11-07T06:06:34.765Z,66.80
2022-11-07T06:09:01.518Z,66.90
2022-11-07T06:11:28.143Z,67.00
2022-11-07T06:13:54.947Z,67.00
2022-11-07T06:16:21.669Z,67.00
2022-11-07T06:18:48.371Z,67.20
2022-11-07T06:21:15.853Z,67.00
2022-11-07T06:23:42.848Z,66.90
2022-11-07T06:26:09.799Z,66.90
2022-11-07T06:28:37.120Z,66.70
2022-11-07T06:31:04.751Z,67.10
2022-11-07T06:33:31.794Z,67.00
2022-11-07T06:36:10.363Z,67.30
2022-11-07T06:38:38.302Z,67.30
2022-11-07T06:41:07.013Z,67.40
2022-11-07T06:43:34.137Z,67.30
2022-11-07T06:46:09.527Z,67.30
2022-11-07T06:48:36.366Z,67.40
2022-11-07T06:51:05.373Z,67.30
2022-11-07T06:53:41.080Z,66.60
2022-11-07T06:56:12.229Z,66.80
2022-11-07T06:58:39.447Z,67.30
2022-11-07T07:01:09.677Z,67.40
2022-11-07T07:03:36.321Z,67.10
2022-11-07T07:06:05.259Z,66.70
2022-11-07T07:08:32.414Z,67.60
2022-11-07T07:11:04.007Z,67.20
2022-11-07T07:13:30.644Z,67.10
2022-11-07T07:15:58.460Z,67.10
2022-11-07T07:18:25.641Z,66.90
2022-11-07T07:20:54.161Z,67.00
2022-11-07T07:23:21.391Z,67.20
2022-11-07T07:25:48.287Z,66.20
2022-11-07T07:28:14.913Z,66.90
2022-11-07T07:30:42.429Z,67.00
2022-11-07T07:33:11.385Z,67.00
2022-11-07T07:35:37.993Z,66.80
2022-11-07T07:38:04.613Z,66.60
2022-11-07T07:40:31.229Z,66.90
2022-11-07T07:42:57.951Z,66.60
2022-11-07T07:45:24.593Z,66.60
2022-11-07T07:47:52.883Z,66.60
2022-11-07T07:50:19.714Z,66.70
2022-11-07T07:52:46.330Z,66.80
2022-11-07T07:55:13.104Z,66.80
2022-11-07T07:57:41.773Z,66.80
2022-11-07T08:00:10.343Z,66.80
2022-11-07T08:02:37.064Z,66.90
2022-11-07T08:05:03.800Z,66.90
2022-11-07T08:07:30.402Z,66.90
2022-11-07T08:09:59.393Z,66.90
2022-11-07T08:12:28.753Z,66.90
2022-11-07T08:14:55.324Z,66.90
2022-11-07T08:17:21.933Z,66.80
2022-11-07T08:19:48.539Z,66.80
2022-11-07T08:22:15.131Z,66.90
2022-11-07T08:24:43.128Z,66.10
2022-11-07T08:27:09.753Z,66.80
2022-11-07T08:29:36.347Z,67.20
2022-11-07T08:32:02.988Z,67.10
2022-11-07T08:34:29.556Z,67.30
2022-11-07T08:36:56.309Z,67.40
2022-11-07T08:39:22.920Z,67.60
2022-11-07T08:41:49.531Z,67.60
2022-11-07T08:44:16.151Z,67.90
2022-11-07T08:46:42.729Z,67.70
2022-11-07T08:49:09.323Z,67.60
2022-11-07T08:51:35.904Z,67.40
2022-11-07T08:54:02.495Z,67.10
2022-11-07T08:56:29.619Z,66.10
2022-11-07T08:58:56.214Z,65.80
2022-11-07T09:01:22.957Z,66.60
2022-11-07T09:03:54.977Z,67.10
2022-11-07T09:06:24.794Z,67.60
2022-11-07T09:08:51.362Z,67.60
2022-11-07T09:11:19.091Z,67.60
2022-11-07T09:13:48.959Z,67.70
2022-11-07T09:16:18.468Z,67.30
2022-11-07T09:18:46.660Z,68.10
2022-11-07T09:21:20.771Z,67.90
2022-11-07T09:23:48.581Z,67.80
2022-11-07T09:26:15.139Z,67.80
2022-11-07T09:28:44.579Z,67.90
2022-11-07T09:31:13.577Z,68.00
2022-11-07T09:33:40.164Z,68.10
2022-11-07T09:36:06.988Z,67.90
2022-11-07T09:38:33.603Z,68.20
2022-11-07T09:41:13.737Z,68.00
2022-11-07T09:44:27.947Z,67.90
2022-11-07T09:47:14.494Z,68.00
2022-11-07T09:49:46.070Z,67.90
2022-11-07T09:52:28.639Z,68.00
2022-11-07T09:55:08.919Z,68.00
2022-11-07T09:57:36.223Z,68.00
2022-11-07T10:00:10.892Z,68.00
2022-11-07T10:02:48.161Z,68.10
2022-11-07T10:05:24.050Z,68.30
2022-11-07T10:08:11.933Z,68.20
2022-11-07T10:11:03.057Z,68.40
2022-11-07T10:13:47.332Z,68.20
2022-11-07T10:16:25.307Z,68.00
2022-11-07T10:19:28.022Z,68.00
2022-11-07T10:22:00.325Z,68.00
2022-11-07T10:24:35.731Z,68.10
2022-11-07T10:27:02.770Z,68.70
2022-11-07T10:29:44.632Z,68.00
2022-11-07T10:32:20.957Z,68.10
2022-11-07T10:34:57.802Z,68.20
2022-11-07T10:37:24.765Z,68.20
2022-11-07T10:39:51.354Z,68.00
2022-11-07T10:42:25.547Z,68.10
2022-11-07T10:44:54.002Z,68.20
2022-11-07T10:47:23.568Z,68.30
2022-11-07T10:49:54.681Z,68.20
2022-11-07T10:52:21.949Z,68.10
2022-11-07T10:54:48.751Z,67.90
2022-11-07T10:57:23.500Z,68.00
2022-11-07T10:59:52.937Z,69.00
2022-11-07T11:02:25.953Z,68.10
2022-11-07T11:04:58.287Z,68.00
2022-11-07T11:07:32.373Z,68.10
2022-11-07T11:09:59.151Z,67.90
2022-11-07T11:12:34.326Z,67.90
2022-11-07T11:15:13.283Z,68.00
2022-11-07T11:17:40.251Z,67.90
2022-11-07T11:20:25.500Z,67.80
2022-11-07T11:22:53.659Z,68.00
2022-11-07T11:25:22.054Z,67.90
2022-11-07T11:28:10.651Z,67.70
2022-11-07T11:30:37.592Z,67.60
2022-11-07T11:33:14.303Z,67.70
2022-11-07T11:35:53.637Z,67.70
2022-11-07T11:38:28.396Z,67.70
2022-11-07T11:41:10.309Z,67.70
2022-11-07T11:44:05.778Z,68.00
2022-11-07T11:46:38.257Z,68.10
2022-11-07T11:49:14.320Z,67.80
2022-11-07T11:51:50.083Z,67.80
2022-11-07T11:54:17.372Z,68.00
2022-11-07T11:56:50.952Z,68.20
2022-11-07T11:59:35.861Z,67.90
2022-11-07T12:02:21.228Z,67.20
2022-11-07T12:05:09.791Z,67.90
2022-11-07T12:07:57.456Z,68.00
2022-11-07T12:10:27.806Z,68.00
2022-11-07T12:13:00.210Z,68.00
2022-11-07T12:15:47.421Z,67.40
2022-11-07T12:18:36.829Z,68.30
2022-11-07T12:21:25.204Z,68.40
2022-11-07T12:24:33.032Z,68.10
2022-11-07T12:27:29.950Z,68.00
2022-11-07T12:30:11.620Z,68.20
2022-11-07T12:32:53.524Z,68.10
2022-11-07T12:35:41.826Z,68.20
2022-11-07T12:38:41.989Z,66.40
2022-11-07T12:41:26.373Z,68.40
2022-11-07T12:44:21.273Z,68.70
2022-11-07T12:46:50.442Z,68.50
2022-11-07T12:49:45.503Z,68.60
2022-11-07T12:52:45.284Z,68.40
2022-11-07T12:55:21.070Z,68.60
2022-11-07T12:57:50.849Z,68.60
2022-11-07T13:00:29.179Z,68.60
2022-11-07T13:03:33.679Z,68.60
2022-11-07T13:06:16.237Z,68.60
2022-11-07T13:08:54.985Z,68.60
2022-11-07T13:11:32.137Z,68.50
2022-11-07T13:14:23.984Z,68.60
2022-11-07T13:17:19.780Z,68.70
2022-11-07T13:20:04.790Z,68.80
2022-11-07T13:22:35.252Z,68.80
2022-11-07T13:25:06.166Z,68.80
2022-11-07T13:27:39.790Z,68.90
2022-11-07T13:30:15.098Z,69.00
2022-11-07T13:32:43.677Z,69.00
2022-11-07T13:35:27.788Z,68.50
2022-11-07T13:38:08.334Z,69.50
2022-11-07T13:41:06.108Z,69.30
2022-11-07T13:43:35.498Z,70.20
2022-11-07T13:46:05.966Z,70.30
2022-11-07T13:48:48.964Z,71.00
2022-11-07T13:51:33.186Z,70.50
2022-11-07T13:54:34.699Z,71.00
2022-11-07T13:57:18.130Z,71.10
2022-11-07T13:59:57.400Z,71.00
2022-11-07T14:02:30.394Z,70.50
2022-11-07T14:05:16.796Z,70.70
2022-11-07T14:08:27.000Z,70.60
2022-11-07T14:10:59.023Z,70.30
2022-11-07T14:13:29.282Z,70.50
2022-11-07T14:16:02.671Z,70.40
2022-11-07T14:18:33.361Z,70.90
2022-11-07T14:21:02.157Z,70.90
2022-11-07T14:23:32.980Z,70.60
2022-11-07T14:26:06.049Z,69.70
2022-11-07T14:28:42.505Z,70.50
2022-11-07T14:31:31.393Z,70.40
2022-11-07T14:34:14.183Z,70.40
2022-11-07T14:36:49.586Z,70.20
2022-11-07T14:39:18.262Z,70.40
2022-11-07T14:41:45.867Z,70.50
2022-11-07T14:47:31.804Z,70.00
2022-11-07T14:50:00.020Z,69.60
2022-11-07T14:52:34.512Z,69.90
2022-11-07T14:55:30.364Z,69.60
2022-11-07T14:58:00.232Z,70.00
2022-11-07T15:00:27.024Z,69.80
2022-11-07T15:02:56.141Z,69.80
2022-11-07T15:05:37.238Z,69.60
2022-11-07T15:08:04.307Z,69.40
2022-11-07T15:10:33.848Z,69.60
2022-11-07T15:13:06.399Z,69.20
2022-11-07T15:15:35.549Z,68.70
2022-11-07T15:18:05.442Z,69.40
2022-11-07T15:20:35.780Z,69.30
2022-11-07T15:23:13.652Z,69.40
2022-11-07T15:25:50.942Z,69.40
2022-11-07T15:28:17.781Z,69.30
2022-11-07T15:30:46.138Z,69.30
2022-11-07T15:33:14.010Z,69.20
2022-11-07T15:35:44.399Z,69.20
2022-11-07T15:38:24.105Z,69.30
2022-11-07T15:40:51.614Z,69.10
2022-11-07T15:43:19.431Z,69.00
2022-11-07T15:45:49.013Z,69.20
2022-11-07T15:48:19.512Z,68.90
2022-11-07T15:50:48.496Z,69.00
2022-11-07T15:53:16.636Z,69.70
2022-11-07T15:55:43.253Z,69.20
2022-11-07T15:58:14.310Z,68.90
2022-11-07T16:00:41.782Z,69.00
2022-11-07T16:03:14.738Z,68.70
2022-11-07T16:05:45.911Z,68.00
2022-11-07T16:08:19.065Z,68.60
2022-11-07T16:10:54.700Z,69.40
2022-11-07T16:13:24.308Z,68.70
2022-11-07T16:15:59.812Z,68.30
2022-11-07T16:18:27.751Z,69.10
2022-11-07T16:20:54.545Z,69.20
2022-11-07T16:23:21.215Z,69.10
2022-11-07T16:25:50.512Z,68.00
2022-11-07T16:28:25.051Z,68.70
2022-11-07T16:30:52.175Z,69.00
2022-11-07T16:33:19.240Z,69.00
2022-11-07T16:35:49.185Z,68.80
2022-11-07T16:38:19.292Z,68.70
2022-11-07T16:40:46.833Z,69.20
2022-11-07T16:43:13.735Z,68.70
2022-11-07T16:45:46.300Z,68.60
2022-11-07T16:48:36.527Z,68.80
2022-11-07T16:51:03.516Z,68.40
2022-11-07T16:53:30.107Z,68.90
2022-11-07T16:56:02.288Z,68.80
2022-11-07T16:58:31.369Z,68.60
2022-11-07T17:01:05.072Z,68.40
2022-11-07T17:03:32.207Z,68.60
2022-11-07T17:06:01.487Z,68.80
2022-11-07T17:08:41.061Z,68.60
2022-11-07T17:11:08.840Z,68.40
2022-11-07T17:13:38.044Z,68.90
2022-11-07T17:16:16.430Z,68.10
2022-11-07T17:18:44.969Z,68.80
2022-11-07T17:21:21.901Z,67.80
2022-11-07T17:23:49.355Z,68.70
2022-11-07T17:26:21.694Z,68.70
2022-11-07T17:28:49.481Z,68.90
2022-11-07T17:31:16.620Z,69.00
2022-11-07T17:33:44.029Z,69.00
2022-11-07T17:36:29.754Z,69.00
2022-11-07T17:39:11.379Z,68.90
2022-11-07T17:41:39.699Z,68.90
2022-11-07T17:44:11.707Z,68.80
2022-11-07T17:46:46.060Z,69.00
2022-11-07T17:49:16.477Z,68.90
2022-11-07T17:51:43.947Z,68.90
2022-11-07T17:54:13.700Z,68.40
2022-11-07T17:56:42.991Z,69.00
2022-11-07T17:59:15.991Z,69.80
2022-11-07T18:01:43.577Z,69.10
2022-11-07T18:04:12.663Z,69.20
2022-11-07T18:06:44.275Z,69.20
2022-11-07T18:09:16.026Z,69.20
2022-11-07T18:11:45.763Z,69.20
2022-11-07T18:14:14.025Z,69.40
2022-11-07T18:16:40.690Z,69.40
2022-11-07T18:19:07.289Z,69.30
2022-11-07T18:21:37.542Z,69.40
2022-11-07T18:24:08.338Z,69.40
2022-11-07T18:26:36.875Z,69.40
2022-11-07T18:29:09.401Z,69.50
2022-11-07T18:31:37.229Z,69.50
2022-11-07T18:34:07.462Z,69.70
2022-11-07T18:36:38.037Z,69.70
2022-11-07T18:39:11.335Z,69.70
2022-11-07T18:41:38.875Z,69.70
2022-11-07T18:44:09.006Z,69.70
2022-11-07T18:46:36.036Z,69.70
2022-11-07T18:49:03.232Z,69.70
2022-11-07T18:51:29.847Z,69.70
2022-11-07T18:53:56.483Z,69.60
2022-11-07T18:56:23.140Z,69.60
2022-11-07T18:58:49.848Z,69.60
2022-11-07T19:01:19.387Z,69.70
2022-11-07T19:03:47.057Z,69.10
2022-11-07T19:06:16.704Z,69.70
2022-11-07T19:08:47.194Z,69.60
2022-11-07T19:11:16.633Z,69.60
2022-11-07T19:13:45.528Z,69.60
2022-11-07T19:16:17.961Z,69.40
2022-11-07T19:18:49.313Z,69.70
2022-11-07T19:21:18.854Z,69.30
2022-11-07T19:23:47.126Z,69.20
2022-11-07T19:26:14.098Z,68.70
2022-11-07T19:28:41.655Z,69.10
2022-11-07T19:31:12.494Z,69.40
2022-11-07T19:33:40.800Z,69.60
2022-11-07T19:36:12.875Z,69.40
2022-11-07T19:38:39.517Z,69.50
2022-11-07T19:41:07.249Z,69.70
2022-11-07T19:43:34.518Z,69.60
2022-11-07T19:46:07.262Z,69.60
2022-11-07T19:48:33.923Z,69.50
2022-11-07T19:51:04.965Z,69.40
2022-11-07T19:53:31.559Z,69.70
2022-11-07T19:55:58.191Z,69.80
2022-11-07T19:58:24.802Z,69.40
2022-11-07T20:00:51.454Z,69.40
2022-11-07T20:03:18.451Z,69.40
2022-11-07T20:05:45.575Z,69.40
2022-11-07T20:08:12.167Z,69.20
2022-11-07T20:10:44.425Z,69.50
2022-11-07T20:13:10.996Z,69.30
2022-11-07T20:15:39.768Z,69.50
2022-11-07T20:18:06.442Z,69.40
2022-11-07T20:20:33.031Z,69.40
2022-11-07T20:23:00.239Z,69.40
2022-11-07T20:25:28.165Z,69.50
2022-11-07T20:27:54.769Z,69.50
2022-11-07T20:30:21.355Z,69.40
2022-11-07T20:32:47.928Z,69.70
2022-11-07T20:35:14.529Z,69.50
2022-11-07T20:37:41.147Z,69.30
2022-11-07T20:40:08.619Z,70.30
2022-11-07T20:42:35.242Z,69.40
2022-11-07T20:45:01.831Z,69.50
2022-11-07T20:47:28.423Z,69.50
2022-11-07T20:49:55.034Z,69.10
2022-11-07T20:52:21.683Z,69.20
2022-11-07T20:54:48.328Z,68.80
2022-11-07T20:57:15.077Z,69.40
2022-11-07T20:59:42.074Z,69.40
2022-11-07T21:02:12.849Z,69.10
2022-11-07T21:04:56.274Z,69.10
2022-11-07T21:07:26.089Z,68.80
2022-11-07T21:09:52.660Z,68.80
2022-11-07T21:12:19.302Z,68.70
2022-11-07T21:14:46.128Z,68.70
2022-11-07T21:17:12.801Z,68.70
2022-11-07T21:19:39.423Z,69.10
2022-11-07T21:22:06.231Z,68.80
2022-11-07T21:24:32.900Z,68.90
2022-11-07T21:26:59.598Z,68.80
2022-11-07T21:29:29.577Z,69.10
2022-11-07T21:31:56.819Z,68.70
2022-11-07T21:34:23.441Z,68.90
2022-11-07T21:36:50.086Z,69.60
2022-11-07T21:39:17.349Z,69.00
2022-11-07T21:41:44.024Z,68.80
2022-11-07T21:44:12.347Z,68.50
2022-11-07T21:46:39.139Z,68.60
2022-11-07T21:49:06.192Z,68.60
2022-11-07T21:51:36.951Z,68.30
2022-11-07T21:54:05.453Z,68.60
2022-11-07T21:56:38.930Z,68.40
2022-11-07T21:59:11.713Z,68.50
2022-11-07T22:01:39.693Z,68.30
2022-11-07T22:04:10.848Z,68.40
2022-11-07T22:06:40.235Z,68.50
2022-11-07T22:09:09.104Z,68.70
2022-11-07T22:11:36.641Z,68.50
2022-11-07T22:14:03.784Z,67.70
2022-11-07T22:16:31.480Z,68.40
2022-11-07T22:18:59.478Z,68.40
2022-11-07T22:21:26.458Z,68.70
2022-11-07T22:23:53.052Z,68.00
2022-11-07T22:26:23.640Z,68.60
2022-11-07T22:28:51.791Z,68.70
2022-11-07T22:31:24.325Z,68.60
2022-11-07T22:33:53.100Z,68.60
2022-11-07T22:36:20.364Z,68.60
2022-11-07T22:38:47.242Z,68.60
2022-11-07T22:41:21.805Z,68.60
2022-11-07T22:43:49.453Z,68.40
2022-11-07T22:46:19.750Z,68.60
2022-11-07T22:48:48.155Z,68.60
2022-11-07T22:51:30.519Z,68.60
2022-11-07T22:53:59.478Z,68.60
2022-11-07T22:56:27.311Z,68.50
2022-11-07T22:58:56.090Z,68.50
2022-11-07T23:01:27.682Z,68.60
2022-11-07T23:03:59.062Z,68.60
2022-11-07T23:06:30.369Z,68.50
2022-11-07T23:08:59.484Z,68.50
2022-11-07T23:11:45.954Z,68.50
2022-11-07T23:14:14.663Z,67.90
2022-11-07T23:16:47.727Z,68.50
2022-11-07T23:19:15.967Z,68.40
2022-11-07T23:21:44.707Z,68.50
2022-11-07T23:24:12.564Z,68.50
2022-11-07T23:26:39.326Z,68.50
2022-11-07T23:29:14.984Z,68.50
2022-11-07T23:31:44.022Z,68.50
2022-11-07T23:34:11.447Z,68.40
2022-11-07T23:36:43.603Z,68.40
2022-11-07T23:39:14.570Z,68.50
2022-11-07T23:41:41.633Z,68.40
2022-11-07T23:44:09.841Z,68.40
2022-11-07T23:46:58.035Z,68.40
2022-11-07T23:49:43.654Z,68.40
2022-11-07T23:52:12.119Z,68.40
2022-11-07T23:55:10.941Z,68.50
2022-11-07T23:57:57.753Z,68.40
